sensor_id;sensor_type;location;lat;lon;timestamp;pressure;altitude;pressure_sealevel;temperature;humidity
23166;BME280;11751;42.700;24.170;2023-02-19T00:00:01;94189.13;;;4.03;nan
23166;BME280;11751;42.700;24.170;2023-02-19T00:02:26;94193.16;;;4.02;nan
23166;BME280;11751;42.700;24.170;2023-02-19T00:04:52;94180.59;;;4.01;nan
23166;BME280;11751;42.700;24.170;2023-02-19T00:07:17;94188.41;;;4.02;nan
23166;BME280;11751;42.700;24.170;2023-02-19T00:09:43;94193.13;;;4.07;nan
23166;BME280;11751;42.700;24.170;2023-02-19T00:12:08;94180.94;;;3.86;nan
23166;BME280;11751;42.700;24.170;2023-02-19T00:14:33;94177.38;;;3.91;nan
23166;BME280;11751;42.700;24.170;2023-02-19T00:16:59;94185.94;;;3.93;nan
23166;BME280;11751;42.700;24.170;2023-02-19T00:19:24;94170.88;;;3.83;nan
23166;BME280;11751;42.700;24.170;2023-02-19T00:21:51;94177.41;;;3.86;nan
23166;BME280;11751;42.700;24.170;2023-02-19T00:24:17;94185.25;;;3.82;nan
23166;BME280;11751;42.700;24.170;2023-02-19T00:26:43;94169.47;;;3.60;nan
23166;BME280;11751;42.700;24.170;2023-02-19T00:29:15;94170.94;;;3.72;nan
23166;BME280;11751;42.700;24.170;2023-02-19T00:31:41;94171.19;;;3.74;nan
23166;BME280;11751;42.700;24.170;2023-02-19T00:34:07;94181.56;;;3.57;nan
23166;BME280;11751;42.700;24.170;2023-02-19T00:36:36;94185.03;;;3.74;nan
23166;BME280;11751;42.700;24.170;2023-02-19T00:39:03;94179.53;;;3.63;nan
23166;BME280;11751;42.700;24.170;2023-02-19T00:41:29;94181.75;;;3.70;nan
23166;BME280;11751;42.700;24.170;2023-02-19T00:43:58;94181.59;;;3.52;nan
23166;BME280;11751;42.700;24.170;2023-02-19T00:46:30;94171.28;;;3.52;nan
23166;BME280;11751;42.700;24.170;2023-02-19T00:48:56;94161.75;;;3.42;nan
23166;BME280;11751;42.700;24.170;2023-02-19T00:51:24;94155.69;;;3.49;nan
23166;BME280;11751;42.700;24.170;2023-02-19T00:53:50;94154.03;;;3.25;nan
23166;BME280;11751;42.700;24.170;2023-02-19T00:56:16;94153.75;;;3.28;nan
23166;BME280;11751;42.700;24.170;2023-02-19T00:58:41;94151.47;;;3.38;nan
23166;BME280;11751;42.700;24.170;2023-02-19T01:01:07;94145.41;;;3.44;nan
23166;BME280;11751;42.700;24.170;2023-02-19T01:03:34;94148.34;;;3.57;nan
23166;BME280;11751;42.700;24.170;2023-02-19T01:06:01;94146.31;;;3.63;nan
23166;BME280;11751;42.700;24.170;2023-02-19T01:08:27;94145.03;;;3.70;nan
23166;BME280;11751;42.700;24.170;2023-02-19T01:10:55;94133.22;;;3.58;nan
23166;BME280;11751;42.700;24.170;2023-02-19T01:13:20;94145.53;;;3.63;nan
23166;BME280;11751;42.700;24.170;2023-02-19T01:15:46;94135.78;;;3.56;nan
23166;BME280;11751;42.700;24.170;2023-02-19T01:18:11;94136.31;;;3.49;nan
23166;BME280;11751;42.700;24.170;2023-02-19T01:20:39;94127.22;;;3.54;nan
23166;BME280;11751;42.700;24.170;2023-02-19T01:23:05;94139.31;;;3.51;nan
23166;BME280;11751;42.700;24.170;2023-02-19T01:25:30;94134.78;;;3.48;nan
23166;BME280;11751;42.700;24.170;2023-02-19T01:27:55;94127.78;;;3.47;nan
23166;BME280;11751;42.700;24.170;2023-02-19T01:30:21;94137.22;;;3.68;nan
23166;BME280;11751;42.700;24.170;2023-02-19T01:32:46;94133.22;;;3.58;nan
23166;BME280;11751;42.700;24.170;2023-02-19T01:35:12;94144.75;;;3.73;nan
23166;BME280;11751;42.700;24.170;2023-02-19T01:37:37;94138.38;;;3.84;nan
23166;BME280;11751;42.700;24.170;2023-02-19T01:40:02;94140.66;;;3.85;nan
23166;BME280;11751;42.700;24.170;2023-02-19T01:42:28;94146.94;;;3.86;nan
23166;BME280;11751;42.700;24.170;2023-02-19T01:48:13;94139.91;;;3.79;nan
23166;BME280;11751;42.700;24.170;2023-02-19T01:50:46;94143.78;;;3.65;nan
23166;BME280;11751;42.700;24.170;2023-02-19T01:53:15;94141.53;;;3.58;nan
23166;BME280;11751;42.700;24.170;2023-02-19T01:55:45;94138.56;;;3.56;nan
23166;BME280;11751;42.700;24.170;2023-02-19T01:58:11;94138.09;;;3.41;nan
23166;BME280;11751;42.700;24.170;2023-02-19T02:00:36;94145.16;;;3.42;nan
23166;BME280;11751;42.700;24.170;2023-02-19T02:03:02;94136.66;;;3.24;nan
23166;BME280;11751;42.700;24.170;2023-02-19T02:05:37;94138.91;;;3.37;nan
23166;BME280;11751;42.700;24.170;2023-02-19T02:08:04;94139.91;;;3.34;nan
23166;BME280;11751;42.700;24.170;2023-02-19T02:10:49;94139.41;;;3.30;nan
23166;BME280;11751;42.700;24.170;2023-02-19T02:13:14;94144.00;;;3.16;nan
23166;BME280;11751;42.700;24.170;2023-02-19T02:18:35;94139.97;;;3.17;nan
23166;BME280;11751;42.700;24.170;2023-02-19T02:21:34;94146.47;;;3.20;nan
23166;BME280;11751;42.700;24.170;2023-02-19T02:35:44;94145.41;;;2.28;nan
23166;BME280;11751;42.700;24.170;2023-02-19T02:38:11;94146.16;;;2.39;nan
23166;BME280;11751;42.700;24.170;2023-02-19T02:40:41;94143.38;;;2.50;nan
23166;BME280;11751;42.700;24.170;2023-02-19T02:43:08;94148.88;;;2.61;nan
23166;BME280;11751;42.700;24.170;2023-02-19T02:45:33;94149.94;;;2.53;nan
23166;BME280;11751;42.700;24.170;2023-02-19T02:48:01;94145.41;;;2.44;nan
23166;BME280;11751;42.700;24.170;2023-02-19T02:50:42;94142.38;;;2.48;nan
23166;BME280;11751;42.700;24.170;2023-02-19T02:53:38;94145.09;;;2.75;nan
23166;BME280;11751;42.700;24.170;2023-02-19T02:56:24;94152.19;;;2.54;nan
23166;BME280;11751;42.700;24.170;2023-02-19T02:58:51;94147.16;;;2.58;nan
23166;BME280;11751;42.700;24.170;2023-02-19T03:01:24;94151.19;;;2.57;nan
23166;BME280;11751;42.700;24.170;2023-02-19T03:04:20;94160.72;;;2.67;nan
23166;BME280;11751;42.700;24.170;2023-02-19T03:06:49;94150.66;;;2.64;nan
23166;BME280;11751;42.700;24.170;2023-02-19T03:09:27;94166.72;;;2.60;nan
23166;BME280;11751;42.700;24.170;2023-02-19T03:11:57;94159.94;;;2.61;nan
23166;BME280;11751;42.700;24.170;2023-02-19T03:14:46;94170.78;;;2.59;nan
23166;BME280;11751;42.700;24.170;2023-02-19T03:17:37;94156.16;;;2.75;nan
23166;BME280;11751;42.700;24.170;2023-02-19T03:20:23;94153.16;;;2.73;nan
23166;BME280;11751;42.700;24.170;2023-02-19T03:22:51;94172.25;;;2.71;nan
23166;BME280;11751;42.700;24.170;2023-02-19T03:25:20;94175.25;;;2.73;nan
23166;BME280;11751;42.700;24.170;2023-02-19T03:28:07;94160.69;;;2.78;nan
23166;BME280;11751;42.700;24.170;2023-02-19T03:30:41;94170.97;;;2.77;nan
23166;BME280;11751;42.700;24.170;2023-02-19T03:33:28;94164.72;;;2.77;nan
23166;BME280;11751;42.700;24.170;2023-02-19T03:36:00;94185.81;;;2.80;nan
23166;BME280;11751;42.700;24.170;2023-02-19T03:43:49;94185.31;;;2.76;nan
23166;BME280;11751;42.700;24.170;2023-02-19T03:46:47;94179.53;;;2.74;nan
23166;BME280;11751;42.700;24.170;2023-02-19T03:49:33;94189.34;;;2.53;nan
23166;BME280;11751;42.700;24.170;2023-02-19T04:02:25;94194.63;;;2.46;nan
23166;BME280;11751;42.700;24.170;2023-02-19T04:07:31;94206.44;;;2.46;nan
23166;BME280;11751;42.700;24.170;2023-02-19T04:09:59;94194.41;;;2.38;nan
23166;BME280;11751;42.700;24.170;2023-02-19T04:12:25;94194.41;;;2.38;nan
23166;BME280;11751;42.700;24.170;2023-02-19T04:14:58;94199.41;;;2.34;nan
23166;BME280;11751;42.700;24.170;2023-02-19T04:17:30;94202.41;;;2.36;nan
23166;BME280;11751;42.700;24.170;2023-02-19T04:19:58;94205.44;;;2.38;nan
23166;BME280;11751;42.700;24.170;2023-02-19T04:22:27;94207.94;;;2.36;nan
23166;BME280;11751;42.700;24.170;2023-02-19T04:24:53;94207.69;;;2.29;nan
23166;BME280;11751;42.700;24.170;2023-02-19T04:27:20;94212.47;;;2.28;nan
23166;BME280;11751;42.700;24.170;2023-02-19T04:29:45;94196.88;;;2.14;nan
23166;BME280;11751;42.700;24.170;2023-02-19T04:32:12;94208.41;;;2.07;nan
23166;BME280;11751;42.700;24.170;2023-02-19T04:34:37;94188.31;;;1.85;nan
23166;BME280;11751;42.700;24.170;2023-02-19T04:37:03;94198.84;;;1.97;nan
23166;BME280;11751;42.700;24.170;2023-02-19T04:39:29;94192.06;;;1.93;nan
23166;BME280;11751;42.700;24.170;2023-02-19T04:41:54;94199.66;;;2.20;nan
23166;BME280;11751;42.700;24.170;2023-02-19T04:44:20;94201.88;;;2.21;nan
23166;BME280;11751;42.700;24.170;2023-02-19T04:46:45;94210.44;;;2.34;nan
23166;BME280;11751;42.700;24.170;2023-02-19T04:49:10;94209.94;;;2.41;nan
23166;BME280;11751;42.700;24.170;2023-02-19T04:51:37;94211.47;;;2.42;nan
23166;BME280;11751;42.700;24.170;2023-02-19T04:54:02;94207.19;;;2.47;nan
23166;BME280;11751;42.700;24.170;2023-02-19T04:56:28;94216.97;;;2.42;nan
23166;BME280;11751;42.700;24.170;2023-02-19T04:58:54;94208.94;;;2.33;nan
23166;BME280;11751;42.700;24.170;2023-02-19T05:01:20;94223.97;;;1.99;nan
23166;BME280;11751;42.700;24.170;2023-02-19T05:03:45;94219.47;;;2.07;nan
23166;BME280;11751;42.700;24.170;2023-02-19T05:06:12;94224.50;;;2.14;nan
23166;BME280;11751;42.700;24.170;2023-02-19T05:08:38;94224.50;;;2.25;nan
23166;BME280;11751;42.700;24.170;2023-02-19T05:11:05;94225.50;;;2.22;nan
23166;BME280;11751;42.700;24.170;2023-02-19T05:13:31;94228.28;;;2.39;nan
23166;BME280;11751;42.700;24.170;2023-02-19T05:16:11;94215.22;;;2.55;nan
23166;BME280;11751;42.700;24.170;2023-02-19T05:18:41;94221.53;;;2.56;nan
23166;BME280;11751;42.700;24.170;2023-02-19T05:21:07;94219.00;;;2.47;nan
23166;BME280;11751;42.700;24.170;2023-02-19T05:23:32;94231.31;;;2.73;nan
23166;BME280;11751;42.700;24.170;2023-02-19T05:25:58;94231.06;;;2.77;nan
23166;BME280;11751;42.700;24.170;2023-02-19T05:28:24;94241.13;;;2.69;nan
23166;BME280;11751;42.700;24.170;2023-02-19T05:30:56;94239.09;;;2.75;nan
23166;BME280;11751;42.700;24.170;2023-02-19T05:33:23;94253.44;;;2.73;nan
23166;BME280;11751;42.700;24.170;2023-02-19T05:35:51;94257.47;;;2.72;nan
23166;BME280;11751;42.700;24.170;2023-02-19T05:38:17;94253.69;;;2.59;nan
23166;BME280;11751;42.700;24.170;2023-02-19T05:40:46;94251.66;;;2.54;nan
23166;BME280;11751;42.700;24.170;2023-02-19T05:43:12;94259.44;;;2.61;nan
23166;BME280;11751;42.700;24.170;2023-02-19T05:45:37;94259.44;;;2.66;nan
23166;BME280;11751;42.700;24.170;2023-02-19T05:48:04;94257.19;;;2.65;nan
23166;BME280;11751;42.700;24.170;2023-02-19T05:50:33;94267.75;;;2.61;nan
23166;BME280;11751;42.700;24.170;2023-02-19T05:53:03;94269.50;;;2.48;nan
23166;BME280;11751;42.700;24.170;2023-02-19T05:55:33;94266.22;;;2.60;nan
23166;BME280;11751;42.700;24.170;2023-02-19T05:57:59;94267.75;;;2.72;nan
23166;BME280;11751;42.700;24.170;2023-02-19T06:00:25;94270.25;;;2.70;nan
23166;BME280;11751;42.700;24.170;2023-02-19T06:02:52;94276.31;;;2.74;nan
23166;BME280;11751;42.700;24.170;2023-02-19T06:05:18;94271.78;;;2.82;nan
23166;BME280;11751;42.700;24.170;2023-02-19T06:07:43;94267.75;;;2.83;nan
23166;BME280;11751;42.700;24.170;2023-02-19T06:10:10;94274.78;;;2.84;nan
23166;BME280;11751;42.700;24.170;2023-02-19T06:12:36;94271.53;;;2.91;nan
23166;BME280;11751;42.700;24.170;2023-02-19T06:15:02;94288.38;;;2.93;nan
23166;BME280;11751;42.700;24.170;2023-02-19T06:17:29;94290.13;;;3.12;nan
23166;BME280;11751;42.700;24.170;2023-02-19T06:19:54;94295.41;;;3.27;nan
23166;BME280;11751;42.700;24.170;2023-02-19T06:22:19;94295.88;;;3.41;nan
23166;BME280;11751;42.700;24.170;2023-02-19T06:24:46;94308.69;;;3.44;nan
23166;BME280;11751;42.700;24.170;2023-02-19T06:27:11;94305.41;;;3.51;nan
23166;BME280;11751;42.700;24.170;2023-02-19T06:29:37;94300.56;;;3.68;nan
23166;BME280;11751;42.700;24.170;2023-02-19T06:32:03;94303.09;;;3.72;nan
23166;BME280;11751;42.700;24.170;2023-02-19T06:34:29;94305.09;;;3.77;nan
23166;BME280;11751;42.700;24.170;2023-02-19T06:36:55;94302.28;;;3.88;nan
23166;BME280;11751;42.700;24.170;2023-02-19T06:39:21;94303.97;;;4.02;nan
23166;BME280;11751;42.700;24.170;2023-02-19T06:41:46;94299.47;;;4.04;nan
23166;BME280;11751;42.700;24.170;2023-02-19T06:44:11;94305.16;;;4.22;nan
23166;BME280;11751;42.700;24.170;2023-02-19T06:46:37;94302.06;;;4.37;nan
23166;BME280;11751;42.700;24.170;2023-02-19T06:49:03;94295.44;;;4.51;nan
23166;BME280;11751;42.700;24.170;2023-02-19T06:51:29;94299.41;;;4.61;nan
23166;BME280;11751;42.700;24.170;2023-02-19T06:53:59;94306.84;;;4.77;nan
23166;BME280;11751;42.700;24.170;2023-02-19T06:56:35;94298.38;;;4.99;nan
23166;BME280;11751;42.700;24.170;2023-02-19T06:59:04;94293.00;;;5.11;nan
23166;BME280;11751;42.700;24.170;2023-02-19T07:01:32;94307.00;;;5.24;nan
23166;BME280;11751;42.700;24.170;2023-02-19T07:03:58;94304.94;;;5.54;nan
23166;BME280;11751;42.700;24.170;2023-02-19T07:06:24;94303.53;;;5.72;nan
23166;BME280;11751;42.700;24.170;2023-02-19T07:08:51;94305.47;;;5.82;nan
23166;BME280;11751;42.700;24.170;2023-02-19T07:11:17;94314.63;;;6.01;nan
23166;BME280;11751;42.700;24.170;2023-02-19T07:13:43;94294.88;;;6.23;nan
23166;BME280;11751;42.700;24.170;2023-02-19T07:16:10;94310.38;;;6.37;nan
23166;BME280;11751;42.700;24.170;2023-02-19T07:18:38;94305.59;;;6.56;nan
23166;BME280;11751;42.700;24.170;2023-02-19T07:21:06;94305.44;;;6.67;nan
23166;BME280;11751;42.700;24.170;2023-02-19T07:23:31;94302.84;;;6.87;nan
23166;BME280;11751;42.700;24.170;2023-02-19T07:25:57;94300.28;;;7.07;nan
23166;BME280;11751;42.700;24.170;2023-02-19T07:28:23;94297.56;;;7.33;nan
23166;BME280;11751;42.700;24.170;2023-02-19T07:30:48;94305.25;;;7.59;nan
23166;BME280;11751;42.700;24.170;2023-02-19T07:33:13;94300.69;;;7.74;nan
23166;BME280;11751;42.700;24.170;2023-02-19T07:35:46;94307.56;;;7.86;nan
23166;BME280;11751;42.700;24.170;2023-02-19T07:38:14;94306.06;;;8.11;nan
23166;BME280;11751;42.700;24.170;2023-02-19T07:40:41;94304.38;;;8.34;nan
23166;BME280;11751;42.700;24.170;2023-02-19T07:43:06;94307.34;;;8.48;nan
23166;BME280;11751;42.700;24.170;2023-02-19T07:45:31;94314.09;;;8.66;nan
23166;BME280;11751;42.700;24.170;2023-02-19T07:47:57;94311.06;;;8.90;nan
23166;BME280;11751;42.700;24.170;2023-02-19T07:50:22;94307.38;;;8.95;nan
23166;BME280;11751;42.700;24.170;2023-02-19T07:52:47;94299.31;;;9.25;nan
23166;BME280;11751;42.700;24.170;2023-02-19T07:55:13;94292.66;;;9.28;nan
23166;BME280;11751;42.700;24.170;2023-02-19T07:57:38;94297.16;;;9.51;nan
23166;BME280;11751;42.700;24.170;2023-02-19T08:00:04;94303.16;;;9.75;nan
23166;BME280;11751;42.700;24.170;2023-02-19T08:02:29;94294.41;;;9.79;nan
23166;BME280;11751;42.700;24.170;2023-02-19T08:05:13;94293.72;;;9.86;nan
23166;BME280;11751;42.700;24.170;2023-02-19T08:07:39;94287.47;;;10.21;nan
23166;BME280;11751;42.700;24.170;2023-02-19T08:10:05;94290.50;;;10.23;nan
23166;BME280;11751;42.700;24.170;2023-02-19T08:13:00;94299.38;;;10.41;nan
23166;BME280;11751;42.700;24.170;2023-02-19T08:15:45;94296.63;;;10.56;nan
23166;BME280;11751;42.700;24.170;2023-02-19T08:18:11;94297.50;;;10.79;nan
23166;BME280;11751;42.700;24.170;2023-02-19T08:20:37;94289.69;;;10.85;nan
23166;BME280;11751;42.700;24.170;2023-02-19T08:23:03;94296.16;;;11.15;nan
23166;BME280;11751;42.700;24.170;2023-02-19T08:25:28;94284.22;;;11.30;nan
23166;BME280;11751;42.700;24.170;2023-02-19T08:27:54;94294.34;;;11.48;nan
23166;BME280;11751;42.700;24.170;2023-02-19T08:30:20;94289.47;;;11.48;nan
23166;BME280;11751;42.700;24.170;2023-02-19T08:32:46;94282.81;;;11.59;nan
23166;BME280;11751;42.700;24.170;2023-02-19T08:35:12;94286.91;;;11.73;nan
23166;BME280;11751;42.700;24.170;2023-02-19T08:37:37;94278.69;;;11.75;nan
23166;BME280;11751;42.700;24.170;2023-02-19T08:40:03;94277.22;;;11.89;nan
23166;BME280;11751;42.700;24.170;2023-02-19T08:42:28;94289.91;;;11.97;nan
23166;BME280;11751;42.700;24.170;2023-02-19T08:44:54;94276.28;;;12.01;nan
23166;BME280;11751;42.700;24.170;2023-02-19T08:47:19;94280.56;;;12.24;nan
23166;BME280;11751;42.700;24.170;2023-02-19T08:49:45;94268.94;;;12.35;nan
23166;BME280;11751;42.700;24.170;2023-02-19T08:52:10;94268.50;;;12.54;nan
23166;BME280;11751;42.700;24.170;2023-02-19T08:54:36;94269.06;;;12.60;nan
23166;BME280;11751;42.700;24.170;2023-02-19T08:57:01;94279.88;;;12.71;nan
23166;BME280;11751;42.700;24.170;2023-02-19T08:59:29;94271.06;;;12.81;nan
23166;BME280;11751;42.700;24.170;2023-02-19T09:01:56;94262.00;;;12.98;nan
23166;BME280;11751;42.700;24.170;2023-02-19T09:04:22;94260.25;;;13.10;nan
23166;BME280;11751;42.700;24.170;2023-02-19T09:06:47;94266.97;;;13.14;nan
23166;BME280;11751;42.700;24.170;2023-02-19T09:09:12;94269.59;;;13.20;nan
23166;BME280;11751;42.700;24.170;2023-02-19T09:11:38;94253.41;;;13.28;nan
23166;BME280;11751;42.700;24.170;2023-02-19T09:14:04;94246.31;;;13.51;nan
23166;BME280;11751;42.700;24.170;2023-02-19T09:16:32;94231.28;;;13.32;nan
23166;BME280;11751;42.700;24.170;2023-02-19T09:18:58;94244.84;;;13.50;nan
23166;BME280;11751;42.700;24.170;2023-02-19T09:21:23;94241.06;;;13.55;nan
23166;BME280;11751;42.700;24.170;2023-02-19T09:23:48;94241.06;;;13.55;nan
23166;BME280;11751;42.700;24.170;2023-02-19T09:26:14;94236.34;;;13.82;nan
23166;BME280;11751;42.700;24.170;2023-02-19T09:28:40;94243.25;;;13.88;nan
23166;BME280;11751;42.700;24.170;2023-02-19T09:31:10;94223.47;;;13.96;nan
23166;BME280;11751;42.700;24.170;2023-02-19T09:33:36;94236.19;;;14.04;nan
23166;BME280;11751;42.700;24.170;2023-02-19T09:36:03;94225.22;;;14.08;nan
23166;BME280;11751;42.700;24.170;2023-02-19T09:38:28;94218.66;;;14.13;nan
23166;BME280;11751;42.700;24.170;2023-02-19T09:40:58;94219.59;;;14.08;nan
23166;BME280;11751;42.700;24.170;2023-02-19T09:43:30;94216.78;;;14.08;nan
23166;BME280;11751;42.700;24.170;2023-02-19T09:46:08;94222.22;;;14.31;nan
23166;BME280;11751;42.700;24.170;2023-02-19T09:48:35;94193.97;;;14.21;nan
23166;BME280;11751;42.700;24.170;2023-02-19T09:51:01;94204.09;;;14.24;nan
23166;BME280;11751;42.700;24.170;2023-02-19T09:53:34;94200.22;;;14.37;nan
23166;BME280;11751;42.700;24.170;2023-02-19T09:56:04;94201.47;;;14.43;nan
23166;BME280;11751;42.700;24.170;2023-02-19T09:58:38;94197.97;;;14.69;nan
23166;BME280;11751;42.700;24.170;2023-02-19T10:01:09;94196.63;;;14.70;nan
23166;BME280;11751;42.700;24.170;2023-02-19T10:03:42;94196.47;;;14.68;nan
23166;BME280;11751;42.700;24.170;2023-02-19T10:06:19;94191.91;;;14.72;nan
23166;BME280;11751;42.700;24.170;2023-02-19T10:08:47;94195.44;;;14.90;nan
23166;BME280;11751;42.700;24.170;2023-02-19T10:11:13;94198.09;;;14.88;nan
23166;BME280;11751;42.700;24.170;2023-02-19T10:16:13;94199.72;;;15.08;nan
23166;BME280;11751;42.700;24.170;2023-02-19T10:18:43;94178.94;;;15.13;nan
23166;BME280;11751;42.700;24.170;2023-02-19T10:21:21;94178.94;;;15.13;nan
23166;BME280;11751;42.700;24.170;2023-02-19T10:23:50;94166.03;;;15.10;nan
23166;BME280;11751;42.700;24.170;2023-02-19T10:26:17;94170.34;;;15.11;nan
23166;BME280;11751;42.700;24.170;2023-02-19T10:28:43;94162.25;;;14.98;nan
23166;BME280;11751;42.700;24.170;2023-02-19T10:31:34;94166.03;;;15.10;nan
23166;BME280;11751;42.700;24.170;2023-02-19T10:34:00;94142.50;;;14.98;nan
23166;BME280;11751;42.700;24.170;2023-02-19T10:36:32;94141.78;;;14.97;nan
23166;BME280;11751;42.700;24.170;2023-02-19T10:39:02;94132.66;;;15.16;nan
23166;BME280;11751;42.700;24.170;2023-02-19T10:41:30;94125.53;;;15.15;nan
23166;BME280;11751;42.700;24.170;2023-02-19T10:44:03;94128.19;;;15.13;nan
23166;BME280;11751;42.700;24.170;2023-02-19T10:46:32;94115.56;;;15.14;nan
23166;BME280;11751;42.700;24.170;2023-02-19T10:49:18;94123.56;;;15.08;nan
23166;BME280;11751;42.700;24.170;2023-02-19T10:51:45;94107.44;;;15.18;nan
23166;BME280;11751;42.700;24.170;2023-02-19T10:54:18;94107.53;;;15.27;nan
23166;BME280;11751;42.700;24.170;2023-02-19T10:56:45;94103.28;;;15.19;nan
23166;BME280;11751;42.700;24.170;2023-02-19T11:04:23;94098.25;;;15.17;nan
23166;BME280;11751;42.700;24.170;2023-02-19T11:06:49;94072.41;;;15.21;nan
23166;BME280;11751;42.700;24.170;2023-02-19T11:09:33;94084.66;;;15.33;nan
23166;BME280;11751;42.700;24.170;2023-02-19T11:12:02;94076.50;;;15.37;nan
23166;BME280;11751;42.700;24.170;2023-02-19T11:14:30;94082.78;;;15.44;nan
23166;BME280;11751;42.700;24.170;2023-02-19T11:16:57;94071.63;;;15.46;nan
23166;BME280;11751;42.700;24.170;2023-02-19T11:19:41;94081.03;;;15.68;nan
23166;BME280;11751;42.700;24.170;2023-02-19T11:22:18;94078.25;;;15.77;nan
23166;BME280;11751;42.700;24.170;2023-02-19T11:24:49;94069.66;;;15.85;nan
23166;BME280;11751;42.700;24.170;2023-02-19T11:27:21;94074.25;;;15.90;nan
23166;BME280;11751;42.700;24.170;2023-02-19T11:29:48;94076.75;;;15.76;nan
23166;BME280;11751;42.700;24.170;2023-02-19T11:34:46;94068.75;;;15.82;nan
23166;BME280;11751;42.700;24.170;2023-02-19T11:37:17;94074.28;;;15.99;nan
23166;BME280;11751;42.700;24.170;2023-02-19T11:39:44;94068.75;;;16.01;nan
23166;BME280;11751;42.700;24.170;2023-02-19T11:45:12;94064.75;;;16.04;nan
23166;BME280;11751;42.700;24.170;2023-02-19T11:48:25;94055.38;;;16.11;nan
23166;BME280;11751;42.700;24.170;2023-02-19T11:51:17;94052.25;;;15.98;nan
23166;BME280;11751;42.700;24.170;2023-02-19T11:53:47;94049.72;;;15.92;nan
23166;BME280;11751;42.700;24.170;2023-02-19T11:56:33;94041.56;;;15.96;nan
23166;BME280;11751;42.700;24.170;2023-02-19T11:59:02;94033.09;;;15.96;nan
23166;BME280;11751;42.700;24.170;2023-02-19T12:01:51;94043.03;;;16.07;nan
23166;BME280;11751;42.700;24.170;2023-02-19T12:12:32;94015.25;;;16.41;nan
23166;BME280;11751;42.700;24.170;2023-02-19T12:15:09;94021.81;;;16.34;nan
23166;BME280;11751;42.700;24.170;2023-02-19T12:21:21;94002.44;;;16.59;nan
23166;BME280;11751;42.700;24.170;2023-02-19T12:23:49;93993.81;;;16.57;nan
23166;BME280;11751;42.700;24.170;2023-02-19T12:26:41;93994.69;;;16.59;nan
23166;BME280;11751;42.700;24.170;2023-02-19T12:43:12;93978.47;;;17.00;nan
23166;BME280;11751;42.700;24.170;2023-02-19T12:54:04;93956.75;;;16.93;nan
23166;BME280;11751;42.700;24.170;2023-02-19T12:59:17;93943.41;;;16.84;nan
23166;BME280;11751;42.700;24.170;2023-02-19T13:01:55;93944.50;;;17.00;nan
23166;BME280;11751;42.700;24.170;2023-02-19T13:04:33;93928.63;;;16.95;nan
23166;BME280;11751;42.700;24.170;2023-02-19T13:07:06;93937.84;;;16.95;nan
23166;BME280;11751;42.700;24.170;2023-02-19T13:09:37;93921.88;;;17.00;nan
23166;BME280;11751;42.700;24.170;2023-02-19T13:12:19;93920.50;;;16.80;nan
23166;BME280;11751;42.700;24.170;2023-02-19T13:14:49;93920.06;;;16.83;nan
23166;BME280;11751;42.700;24.170;2023-02-19T13:20:25;93896.84;;;16.75;nan
23166;BME280;11751;42.700;24.170;2023-02-19T13:23:04;93900.97;;;16.84;nan
23166;BME280;11751;42.700;24.170;2023-02-19T13:34:08;93879.13;;;17.05;nan
23166;BME280;11751;42.700;24.170;2023-02-19T13:36:38;93878.47;;;17.16;nan
23166;BME280;11751;42.700;24.170;2023-02-19T13:39:06;93874.75;;;17.13;nan
23166;BME280;11751;42.700;24.170;2023-02-19T13:41:39;93872.81;;;17.16;nan
23166;BME280;11751;42.700;24.170;2023-02-19T13:44:30;93884.06;;;17.25;nan
23166;BME280;11751;42.700;24.170;2023-02-19T13:46:56;93881.53;;;17.29;nan
23166;BME280;11751;42.700;24.170;2023-02-19T13:54:30;93861.31;;;17.44;nan
23166;BME280;11751;42.700;24.170;2023-02-19T13:59:54;93860.22;;;17.49;nan
23166;BME280;11751;42.700;24.170;2023-02-19T14:04:57;93851.06;;;17.39;nan
23166;BME280;11751;42.700;24.170;2023-02-19T14:09:56;93860.09;;;17.26;nan
23166;BME280;11751;42.700;24.170;2023-02-19T14:12:31;93836.34;;;17.11;nan
23166;BME280;11751;42.700;24.170;2023-02-19T14:18:00;93844.97;;;17.13;nan
23166;BME280;11751;42.700;24.170;2023-02-19T14:20:39;93841.63;;;17.25;nan
23166;BME280;11751;42.700;24.170;2023-02-19T14:23:22;93833.69;;;17.33;nan
23166;BME280;11751;42.700;24.170;2023-02-19T14:25:51;93830.03;;;17.42;nan
23166;BME280;11751;42.700;24.170;2023-02-19T14:28:23;93830.22;;;17.56;nan
23166;BME280;11751;42.700;24.170;2023-02-19T14:30:59;93836.88;;;17.60;nan
23166;BME280;11751;42.700;24.170;2023-02-19T14:33:29;93831.84;;;17.59;nan
23166;BME280;11751;42.700;24.170;2023-02-19T14:36:01;93827.56;;;17.69;nan
23166;BME280;11751;42.700;24.170;2023-02-19T14:38:35;93817.47;;;17.66;nan
23166;BME280;11751;42.700;24.170;2023-02-19T14:41:02;93814.72;;;17.57;nan
23166;BME280;11751;42.700;24.170;2023-02-19T14:43:30;93818.28;;;17.57;nan
23166;BME280;11751;42.700;24.170;2023-02-19T14:46:05;93800.75;;;17.49;nan
23166;BME280;11751;42.700;24.170;2023-02-19T14:48:43;93810.00;;;17.50;nan
23166;BME280;11751;42.700;24.170;2023-02-19T14:51:37;93798.06;;;17.51;nan
23166;BME280;11751;42.700;24.170;2023-02-19T14:54:16;93801.47;;;17.17;nan
23166;BME280;11751;42.700;24.170;2023-02-19T14:56:49;93797.69;;;17.04;nan
23166;BME280;11751;42.700;24.170;2023-02-19T14:59:24;93800.31;;;16.90;nan
23166;BME280;11751;42.700;24.170;2023-02-19T15:01:57;93800.81;;;16.87;nan
23166;BME280;11751;42.700;24.170;2023-02-19T15:04:43;93796.34;;;16.84;nan
23166;BME280;11751;42.700;24.170;2023-02-19T15:07:14;93794.69;;;16.60;nan
23166;BME280;11751;42.700;24.170;2023-02-19T15:09:45;93792.88;;;16.43;nan
23166;BME280;11751;42.700;24.170;2023-02-19T15:12:23;93793.69;;;16.25;nan
23166;BME280;11751;42.700;24.170;2023-02-19T15:14:52;93797.69;;;16.31;nan
23166;BME280;11751;42.700;24.170;2023-02-19T15:17:25;93803.09;;;16.18;nan
23166;BME280;11751;42.700;24.170;2023-02-19T15:19:51;93797.91;;;16.15;nan
23166;BME280;11751;42.700;24.170;2023-02-19T15:22:23;93786.78;;;15.98;nan
23166;BME280;11751;42.700;24.170;2023-02-19T15:24:48;93798.56;;;15.94;nan